createdAt,value
2023-01-10T00:02:01.407Z,5.73
2023-01-10T00:04:30.877Z,5.74
2023-01-10T00:06:59.291Z,5.75
2023-01-10T00:09:28.075Z,5.74
2023-01-10T00:12:14.558Z,5.73
2023-01-10T00:14:42.725Z,5.74
2023-01-10T00:17:10.952Z,5.76
2023-01-10T00:19:39.112Z,5.75
2023-01-10T00:22:08.343Z,5.77
2023-01-10T00:24:36.345Z,5.78
2023-01-10T00:27:04.813Z,5.82
2023-01-10T00:29:34.308Z,5.86
2023-01-10T00:32:02.418Z,5.87
2023-01-10T00:34:31.385Z,5.90
2023-01-10T00:36:59.470Z,5.97
2023-01-10T00:39:27.937Z,6.05
2023-01-10T00:42:14.750Z,6.12
2023-01-10T00:44:42.978Z,6.18
2023-01-10T00:47:11.077Z,6.23
2023-01-10T00:49:39.931Z,6.28
2023-01-10T00:52:08.071Z,6.32
2023-01-10T00:54:36.198Z,6.32
2023-01-10T00:57:04.433Z,6.31
2023-01-10T00:59:32.464Z,6.31
2023-01-10T01:02:00.688Z,6.31
2023-01-10T01:04:28.815Z,6.30
2023-01-10T01:06:58.819Z,6.27
2023-01-10T01:09:29.313Z,6.27
2023-01-10T01:11:57.491Z,6.26
2023-01-10T01:14:25.899Z,6.25
2023-01-10T01:16:53.872Z,6.26
2023-01-10T01:19:22.083Z,6.24
2023-01-10T01:21:50.359Z,6.24
2023-01-10T01:24:18.358Z,6.27
2023-01-10T01:26:46.357Z,6.32
2023-01-10T01:29:14.751Z,6.36
2023-01-10T01:31:43.073Z,6.38
2023-01-10T01:34:11.289Z,6.38
2023-01-10T01:36:39.472Z,6.37
2023-01-10T01:39:07.779Z,6.34
2023-01-10T01:41:54.408Z,6.25
2023-01-10T01:44:22.508Z,6.14
2023-01-10T01:47:05.244Z,6.02
2023-01-10T01:49:38.928Z,5.97
2023-01-10T01:52:18.383Z,5.92
2023-01-10T01:54:46.696Z,5.88
2023-01-10T01:57:20.563Z,5.86
2023-01-10T01:59:51.333Z,5.85
2023-01-10T02:02:29.937Z,5.84
2023-01-10T02:05:12.944Z,5.80
2023-01-10T02:07:44.440Z,5.75
2023-01-10T02:10:30.947Z,5.69
2023-01-10T02:13:03.316Z,5.64
2023-01-10T02:15:31.788Z,5.60
2023-01-10T02:18:02.371Z,5.57
2023-01-10T02:20:48.161Z,5.57
2023-01-10T02:23:35.396Z,5.57
2023-01-10T02:26:47.766Z,5.57
2023-01-10T02:29:57.051Z,5.59
2023-01-10T02:32:47.729Z,5.62
2023-01-10T02:35:27.657Z,5.64
2023-01-10T02:38:05.530Z,5.65
2023-01-10T02:40:58.248Z,5.66
2023-01-10T02:43:31.755Z,5.66
2023-01-10T02:46:10.445Z,5.67
2023-01-10T02:48:38.479Z,5.67
2023-01-10T02:51:27.635Z,5.66
2023-01-10T02:54:19.693Z,5.63
2023-01-10T02:57:29.426Z,5.64
2023-01-10T03:00:26.158Z,5.65
2023-01-10T03:03:02.923Z,5.67
2023-01-10T03:05:37.809Z,5.70
2023-01-10T03:08:20.099Z,5.73
2023-01-10T03:10:50.501Z,5.76
2023-01-10T03:13:48.590Z,5.79
2023-01-10T03:16:19.696Z,5.81
2023-01-10T03:19:12.871Z,5.80
2023-01-10T03:21:43.713Z,5.77
2023-01-10T03:24:19.367Z,5.76
2023-01-10T03:26:53.685Z,5.73
2023-01-10T03:29:28.762Z,5.65
2023-01-10T03:32:04.345Z,5.61
2023-01-10T03:34:34.070Z,5.59
2023-01-10T03:37:14.707Z,5.61
2023-01-10T03:39:54.581Z,5.65
2023-01-10T03:43:00.644Z,5.69
2023-01-10T03:45:40.167Z,5.73
2023-01-10T03:48:11.533Z,5.77
2023-01-10T03:50:42.570Z,5.78
2023-01-10T03:53:13.211Z,5.77
2023-01-10T03:55:43.223Z,5.75
2023-01-10T03:58:11.574Z,5.72
2023-01-10T04:00:40.765Z,5.71
2023-01-10T04:03:09.969Z,5.69
2023-01-10T04:05:38.182Z,5.69
2023-01-10T04:08:06.301Z,5.71
2023-01-10T04:10:34.612Z,5.73
2023-01-10T04:13:02.861Z,5.75
2023-01-10T04:15:32.194Z,5.76
2023-01-10T04:18:00.432Z,5.73
2023-01-10T04:20:28.515Z,5.70
2023-01-10T04:22:56.468Z,5.67
2023-01-10T04:25:25.063Z,5.65
2023-01-10T04:27:53.249Z,5.61
2023-01-10T04:30:21.256Z,5.58
2023-01-10T04:32:49.336Z,5.58
2023-01-10T04:35:17.402Z,5.60
2023-01-10T04:37:45.442Z,5.63
2023-01-10T04:40:17.345Z,5.66
2023-01-10T04:42:45.417Z,5.69
2023-01-10T04:45:17.799Z,5.72
2023-01-10T04:47:51.168Z,5.75
2023-01-10T04:50:19.263Z,5.76
2023-01-10T04:52:47.310Z,5.76
2023-01-10T04:55:15.685Z,5.74
2023-01-10T04:57:43.861Z,5.72
2023-01-10T05:00:12.867Z,5.71
2023-01-10T05:02:44.442Z,5.68
2023-01-10T05:05:14.477Z,5.68
2023-01-10T05:07:45.983Z,5.68
2023-01-10T05:10:14.471Z,5.68
2023-01-10T05:12:42.662Z,5.66
2023-01-10T05:15:11.192Z,5.63
2023-01-10T05:17:39.664Z,5.57
2023-01-10T05:20:08.273Z,5.50
2023-01-10T05:22:36.435Z,5.42
2023-01-10T05:25:05.846Z,5.37
2023-01-10T05:27:34.031Z,5.32
2023-01-10T05:30:02.150Z,5.26
2023-01-10T05:32:30.272Z,5.23
2023-01-10T05:34:58.465Z,5.23
2023-01-10T05:37:26.676Z,5.22
2023-01-10T05:39:54.661Z,5.23
2023-01-10T05:42:23.009Z,5.25
2023-01-10T05:44:51.064Z,5.28
2023-01-10T05:47:19.810Z,5.31
2023-01-10T05:49:48.056Z,5.34
2023-01-10T05:52:17.028Z,5.37
2023-01-10T05:54:45.799Z,5.41
2023-01-10T05:57:13.966Z,5.42
2023-01-10T05:59:42.246Z,5.40
2023-01-10T06:02:10.679Z,5.37
2023-01-10T06:04:39.113Z,5.36
2023-01-10T06:07:07.336Z,5.32
2023-01-10T06:09:35.672Z,5.30
2023-01-10T06:12:04.048Z,5.29
2023-01-10T06:14:32.749Z,5.28
2023-01-10T06:17:01.237Z,5.28
2023-01-10T06:19:29.448Z,5.30
2023-01-10T06:21:57.531Z,5.33
2023-01-10T06:24:26.012Z,5.37
2023-01-10T06:26:54.419Z,5.44
2023-01-10T06:29:23.623Z,5.48
2023-01-10T06:31:51.965Z,5.52
2023-01-10T06:34:20.140Z,5.55
2023-01-10T06:36:48.813Z,5.55
2023-01-10T06:39:17.146Z,5.57
2023-01-10T06:41:45.354Z,5.57
2023-01-10T06:44:14.116Z,5.57
2023-01-10T06:46:42.526Z,5.60
2023-01-10T06:49:11.212Z,5.63
2023-01-10T06:51:39.351Z,5.63
2023-01-10T06:54:07.522Z,5.59
2023-01-10T06:56:35.913Z,5.58
2023-01-10T06:59:04.087Z,5.58
2023-01-10T07:01:32.426Z,5.58
2023-01-10T07:04:01.508Z,5.57
2023-01-10T07:06:30.149Z,5.55
2023-01-10T07:08:58.703Z,5.56
2023-01-10T07:11:26.792Z,5.55
2023-01-10T07:13:55.044Z,5.54
2023-01-10T07:16:23.553Z,5.54
2023-01-10T07:18:52.786Z,5.53
2023-01-10T07:21:21.240Z,5.55
2023-01-10T07:23:51.085Z,5.59
2023-01-10T07:26:20.759Z,5.65
2023-01-10T07:28:51.433Z,5.68
2023-01-10T07:31:23.198Z,5.68
2023-01-10T07:33:52.498Z,5.68
2023-01-10T07:36:21.174Z,5.68
2023-01-10T07:38:49.673Z,5.68
2023-01-10T07:41:18.396Z,5.68
2023-01-10T07:43:49.038Z,5.67
2023-01-10T07:46:17.624Z,5.66
2023-01-10T07:48:47.229Z,5.69
2023-01-10T07:51:16.130Z,5.73
2023-01-10T07:53:44.543Z,5.80
2023-01-10T07:56:13.196Z,5.84
2023-01-10T07:58:41.972Z,5.90
2023-01-10T08:01:10.846Z,5.98
2023-01-10T08:03:39.107Z,6.03
2023-01-10T08:06:14.825Z,6.05
2023-01-10T08:08:44.952Z,6.07
2023-01-10T08:11:13.380Z,6.09
2023-01-10T08:13:41.751Z,6.13
2023-01-10T08:16:10.242Z,6.18
2023-01-10T08:18:42.564Z,6.24
2023-01-10T08:21:11.168Z,6.31
2023-01-10T08:23:40.208Z,6.33
2023-01-10T08:26:09.291Z,6.36
2023-01-10T08:28:37.774Z,6.38
2023-01-10T08:31:11.577Z,6.39
2023-01-10T08:33:41.788Z,6.39
2023-01-10T08:36:22.441Z,6.39
2023-01-10T08:38:51.350Z,6.37
2023-01-10T08:41:20.017Z,6.39
2023-01-10T08:43:52.681Z,6.44
2023-01-10T08:46:21.285Z,6.47
2023-01-10T08:48:50.595Z,6.48
2023-01-10T08:51:19.633Z,6.47
2023-01-10T08:53:48.091Z,6.47
2023-01-10T08:56:16.616Z,6.48
2023-01-10T08:58:45.135Z,6.46
2023-01-10T09:01:14.670Z,6.47
2023-01-10T09:03:43.661Z,6.46
2023-01-10T09:06:12.299Z,6.49
2023-01-10T09:08:40.594Z,6.49
2023-01-10T09:11:08.962Z,6.48
2023-01-10T09:13:37.907Z,6.48
2023-01-10T09:16:07.803Z,6.49
2023-01-10T09:18:36.872Z,6.49
2023-01-10T09:21:06.005Z,6.47
2023-01-10T09:23:36.926Z,6.45
2023-01-10T09:26:05.798Z,6.40
2023-01-10T09:28:34.693Z,6.34
2023-01-10T09:31:04.699Z,6.30
2023-01-10T09:33:45.774Z,6.23
2023-01-10T09:36:15.936Z,6.16
2023-01-10T09:38:45.277Z,6.12
2023-01-10T09:41:49.570Z,6.10
2023-01-10T09:44:25.822Z,6.09
2023-01-10T09:47:21.735Z,6.09
2023-01-10T09:49:58.282Z,6.11
2023-01-10T09:52:33.312Z,6.16
2023-01-10T09:55:27.266Z,6.24
2023-01-10T09:57:59.313Z,6.34
2023-01-10T10:00:54.444Z,6.44
2023-01-10T10:03:43.647Z,6.53
2023-01-10T10:06:14.233Z,6.65
2023-01-10T10:08:45.728Z,6.66
2023-01-10T10:11:26.848Z,6.78
2023-01-10T10:14:23.381Z,6.84
2023-01-10T10:17:03.916Z,6.84
2023-01-10T10:20:13.862Z,6.85
2023-01-10T10:23:21.223Z,6.88
2023-01-10T10:25:55.918Z,6.91
2023-01-10T10:28:53.599Z,6.95
2023-01-10T10:31:51.231Z,7.01
2023-01-10T10:34:25.855Z,7.06
2023-01-10T10:36:57.791Z,7.13
2023-01-10T10:39:49.722Z,7.20
2023-01-10T10:42:20.247Z,7.30
2023-01-10T10:45:05.216Z,7.33
2023-01-10T10:47:36.453Z,7.32
2023-01-10T10:51:02.248Z,7.32
2023-01-10T10:53:33.768Z,7.29
2023-01-10T10:56:11.820Z,7.27
2023-01-10T10:58:46.781Z,7.27
2023-01-10T11:01:16.588Z,7.26
2023-01-10T11:03:50.262Z,7.22
2023-01-10T11:06:20.460Z,7.19
2023-01-10T11:08:52.914Z,7.18
2023-01-10T11:11:35.986Z,7.25
2023-01-10T11:14:08.716Z,7.31
2023-01-10T11:16:45.241Z,7.33
2023-01-10T11:19:23.551Z,7.36
2023-01-10T11:21:54.289Z,7.42
2023-01-10T11:24:38.516Z,7.43
2023-01-10T11:27:19.653Z,7.42
2023-01-10T11:29:59.276Z,7.42
2023-01-10T11:32:54.313Z,7.44
2023-01-10T11:35:35.693Z,7.42
2023-01-10T11:38:07.622Z,7.37
2023-01-10T11:40:39.385Z,7.35
2023-01-10T11:43:26.609Z,7.33
2023-01-10T11:46:03.098Z,7.29
2023-01-10T11:49:05.655Z,7.28
2023-01-10T11:52:00.472Z,7.28
2023-01-10T11:54:30.574Z,7.27
2023-01-10T11:57:15.937Z,7.27
2023-01-10T11:59:58.519Z,7.26
2023-01-10T12:02:29.879Z,7.23
2023-01-10T12:05:02.288Z,7.29
2023-01-10T12:07:31.343Z,7.31
2023-01-10T12:10:03.310Z,7.29
2023-01-10T12:12:34.973Z,7.14
2023-01-10T12:15:29.502Z,7.15
2023-01-10T12:18:03.716Z,7.17
2023-01-10T12:20:58.139Z,7.26
2023-01-10T12:23:29.591Z,7.24
2023-01-10T12:26:11.405Z,7.20
2023-01-10T12:29:08.790Z,7.14
2023-01-10T12:31:40.945Z,7.23
2023-01-10T12:34:23.370Z,7.31
2023-01-10T12:37:10.746Z,7.33
2023-01-10T12:39:49.591Z,7.35
2023-01-10T12:42:51.773Z,7.25
2023-01-10T12:45:29.671Z,7.33
2023-01-10T12:48:21.952Z,7.31
2023-01-10T12:51:07.469Z,7.30
2023-01-10T12:53:41.543Z,7.33
2023-01-10T12:56:15.230Z,7.34
2023-01-10T12:58:48.700Z,7.35
2023-01-10T13:01:25.269Z,7.35
2023-01-10T13:04:01.039Z,7.28
2023-01-10T13:06:35.636Z,7.26
2023-01-10T13:09:09.936Z,7.26
2023-01-10T13:12:17.759Z,7.26
2023-01-10T13:14:49.361Z,7.26
2023-01-10T13:17:47.186Z,7.22
2023-01-10T13:20:21.693Z,7.28
2023-01-10T13:22:56.639Z,7.34
2023-01-10T13:25:31.487Z,7.40
2023-01-10T13:28:07.984Z,7.43
2023-01-10T13:30:41.037Z,7.42
2023-01-10T13:33:23.637Z,7.45
2023-01-10T13:35:54.780Z,7.48
2023-01-10T13:38:56.476Z,7.49
2023-01-10T13:42:03.899Z,7.46
2023-01-10T13:45:00.947Z,7.33
2023-01-10T13:47:44.876Z,7.21
2023-01-10T13:50:38.640Z,7.15
2023-01-10T13:53:12.607Z,7.17
2023-01-10T13:55:46.438Z,7.22
2023-01-10T13:58:15.858Z,7.25
2023-01-10T14:01:12.674Z,7.26
2023-01-10T14:03:50.195Z,7.25
2023-01-10T14:06:33.001Z,7.26
2023-01-10T14:09:27.623Z,7.23
2023-01-10T14:12:00.560Z,7.25
2023-01-10T14:14:41.029Z,7.32
2023-01-10T14:17:24.602Z,7.34
2023-01-10T14:20:05.127Z,7.26
2023-01-10T14:22:37.619Z,7.24
2023-01-10T14:25:28.056Z,7.20
2023-01-10T14:27:57.477Z,7.16
2023-01-10T14:30:33.088Z,7.14
2023-01-10T14:33:16.210Z,7.12
2023-01-10T14:35:48.014Z,7.10
2023-01-10T14:38:38.323Z,7.07
2023-01-10T14:41:25.211Z,7.07
2023-01-10T14:44:12.053Z,7.05
2023-01-10T14:46:47.742Z,7.03
2023-01-10T14:49:35.769Z,7.01
2023-01-10T14:52:21.506Z,7.00
2023-01-10T14:55:10.278Z,7.01
2023-01-10T14:57:39.884Z,7.01
2023-01-10T15:00:18.004Z,6.98
2023-01-10T15:02:49.173Z,6.94
2023-01-10T15:05:24.172Z,6.91
2023-01-10T15:07:55.424Z,6.85
2023-01-10T15:10:41.750Z,6.83
2023-01-10T15:13:15.502Z,6.82
2023-01-10T15:15:48.881Z,6.79
2023-01-10T15:18:36.836Z,6.76
2023-01-10T15:21:06.334Z,6.76
2023-01-10T15:23:41.230Z,6.77
2023-01-10T15:26:27.737Z,6.78
2023-01-10T15:29:14.878Z,6.76
2023-01-10T15:31:46.737Z,6.76
2023-01-10T15:34:26.891Z,6.73
2023-01-10T15:36:57.587Z,6.71
2023-01-10T15:39:31.155Z,6.68
2023-01-10T15:42:03.941Z,6.67
2023-01-10T15:44:40.186Z,6.65
2023-01-10T15:47:48.197Z,6.61
2023-01-10T15:50:39.420Z,6.63
2023-01-10T15:53:12.027Z,6.65
2023-01-10T15:56:01.004Z,6.66
2023-01-10T15:58:35.949Z,6.66
2023-01-10T16:01:05.122Z,6.67
2023-01-10T16:03:51.309Z,6.67
2023-01-10T16:06:22.196Z,6.68
2023-01-10T16:08:56.040Z,6.70
2023-01-10T16:11:55.498Z,6.69
2023-01-10T16:14:24.000Z,6.69
2023-01-10T16:16:52.512Z,6.65
2023-01-10T16:19:21.512Z,6.59
2023-01-10T16:21:57.942Z,6.57
2023-01-10T16:24:35.884Z,6.56
2023-01-10T16:27:06.238Z,6.53
2023-01-10T16:29:36.292Z,6.50
2023-01-10T16:32:13.702Z,6.48
2023-01-10T16:34:42.045Z,6.48
2023-01-10T16:37:10.653Z,6.49
2023-01-10T16:39:38.805Z,6.51
2023-01-10T16:42:25.778Z,6.52
2023-01-10T16:44:54.012Z,6.56
2023-01-10T16:47:22.141Z,6.51
2023-01-10T16:49:50.408Z,6.49
2023-01-10T16:52:18.552Z,6.53
2023-01-10T16:54:47.304Z,6.53
2023-01-10T16:57:17.137Z,6.52
2023-01-10T16:59:45.264Z,6.53
2023-01-10T17:02:19.289Z,6.51
2023-01-10T17:04:48.799Z,6.48
2023-01-10T17:07:17.110Z,6.41
2023-01-10T17:09:45.303Z,6.46
2023-01-10T17:12:19.801Z,6.44
2023-01-10T17:14:48.379Z,6.44
2023-01-10T17:17:16.460Z,6.41
2023-01-10T17:19:44.758Z,6.41
2023-01-10T17:22:12.982Z,6.42
2023-01-10T17:24:41.035Z,6.37
2023-01-10T17:27:08.983Z,6.38
2023-01-10T17:29:37.046Z,6.39
2023-01-10T17:32:06.057Z,6.42
2023-01-10T17:34:38.765Z,6.45
2023-01-10T17:37:07.042Z,6.47
2023-01-10T17:39:38.223Z,6.48
2023-01-10T17:42:07.368Z,6.46
2023-01-10T17:44:35.573Z,6.45
2023-01-10T17:47:03.774Z,6.42
2023-01-10T17:49:31.817Z,6.37
2023-01-10T17:52:00.038Z,6.32
2023-01-10T17:54:28.618Z,6.27
2023-01-10T17:56:56.842Z,6.25
2023-01-10T17:59:25.501Z,6.23
2023-01-10T18:01:53.824Z,6.25
2023-01-10T18:04:22.020Z,6.24
2023-01-10T18:06:52.502Z,6.23
2023-01-10T18:09:20.877Z,6.25
2023-01-10T18:11:49.238Z,6.23
2023-01-10T18:14:36.080Z,6.26
2023-01-10T18:17:08.056Z,6.24
2023-01-10T18:19:36.430Z,6.22
2023-01-10T18:22:26.408Z,6.19
2023-01-10T18:24:56.029Z,6.21
2023-01-10T18:27:27.255Z,6.21
2023-01-10T18:29:55.326Z,6.21
2023-01-10T18:32:24.359Z,6.20
2023-01-10T18:34:52.532Z,6.22
2023-01-10T18:37:20.872Z,6.20
2023-01-10T18:39:49.824Z,6.22
2023-01-10T18:42:18.001Z,6.23
2023-01-10T18:44:46.189Z,6.23
2023-01-10T18:47:14.838Z,6.22
2023-01-10T18:49:43.061Z,6.25
2023-01-10T18:52:11.195Z,6.26
2023-01-10T18:54:39.437Z,6.26
2023-01-10T18:57:07.517Z,6.24
2023-01-10T18:59:37.897Z,6.21
2023-01-10T19:02:14.312Z,6.16
2023-01-10T19:04:42.778Z,6.19
2023-01-10T19:07:10.877Z,6.22
2023-01-10T19:09:38.960Z,6.22
2023-01-10T19:12:07.695Z,6.26
2023-01-10T19:14:36.043Z,6.30
2023-01-10T19:17:04.594Z,6.33
2023-01-10T19:19:32.740Z,6.33
2023-01-10T19:22:01.068Z,6.31
2023-01-10T19:24:32.068Z,6.36
2023-01-10T19:27:00.743Z,6.36
2023-01-10T19:29:30.783Z,6.36
2023-01-10T19:31:59.508Z,6.36
2023-01-10T19:34:27.844Z,6.33
2023-01-10T19:36:56.666Z,6.33
2023-01-10T19:39:25.247Z,6.34
2023-01-10T19:41:53.701Z,6.35
2023-01-10T19:44:22.174Z,6.35
2023-01-10T19:46:50.569Z,6.36
2023-01-10T19:49:19.785Z,6.38
2023-01-10T19:51:51.420Z,6.38
2023-01-10T19:54:20.236Z,6.40
2023-01-10T19:56:48.263Z,6.42
2023-01-10T19:59:17.874Z,6.46
2023-01-10T20:01:46.351Z,6.46
2023-01-10T20:04:15.396Z,6.45
2023-01-10T20:06:43.956Z,6.47
2023-01-10T20:09:12.633Z,6.47
2023-01-10T20:11:43.235Z,6.50
2023-01-10T20:14:18.434Z,6.51
2023-01-10T20:16:49.173Z,6.50
2023-01-10T20:19:18.756Z,6.48
2023-01-10T20:21:47.201Z,6.45
2023-01-10T20:24:21.163Z,6.40
2023-01-10T20:26:50.966Z,6.38
2023-01-10T20:29:20.729Z,6.38
2023-01-10T20:31:52.972Z,6.39
2023-01-10T20:34:23.027Z,6.39
2023-01-10T20:36:54.148Z,6.38
2023-01-10T20:39:25.760Z,6.39
2023-01-10T20:41:53.890Z,6.40
2023-01-10T20:44:22.546Z,6.40
2023-01-10T20:46:51.259Z,6.41
2023-01-10T20:49:19.896Z,6.41
2023-01-10T20:51:53.848Z,6.43
2023-01-10T20:54:21.860Z,6.46
2023-01-10T20:56:50.161Z,6.50
2023-01-10T20:59:18.655Z,6.51
2023-01-10T21:01:46.840Z,6.51
2023-01-10T21:04:14.935Z,6.51
2023-01-10T21:06:43.072Z,6.50
2023-01-10T21:09:13.296Z,6.48
2023-01-10T21:11:56.621Z,6.49
2023-01-10T21:14:29.367Z,6.45
2023-01-10T21:16:57.576Z,6.41
2023-01-10T21:19:25.561Z,6.32
2023-01-10T21:21:53.608Z,6.29
2023-01-10T21:24:23.171Z,6.33
2023-01-10T21:26:51.419Z,6.37
2023-01-10T21:29:19.468Z,6.39
2023-01-10T21:31:47.711Z,6.41
2023-01-10T21:34:16.013Z,6.43
2023-01-10T21:36:44.233Z,6.46
2023-01-10T21:39:12.395Z,6.46
2023-01-10T21:42:15.555Z,6.49
2023-01-10T21:44:43.651Z,6.51
2023-01-10T21:47:11.823Z,6.52
2023-01-10T21:49:40.363Z,6.52
2023-01-10T21:52:08.598Z,6.50
2023-01-10T21:54:37.464Z,6.48
2023-01-10T21:57:05.438Z,6.49
2023-01-10T21:59:34.258Z,6.52
2023-01-10T22:02:02.180Z,6.55
2023-01-10T22:04:30.213Z,6.57
2023-01-10T22:06:58.419Z,6.54
2023-01-10T22:09:26.375Z,6.52
2023-01-10T22:11:54.397Z,6.52
2023-01-10T22:14:22.487Z,6.54
2023-01-10T22:16:52.600Z,6.53
2023-01-10T22:19:20.652Z,6.50
2023-01-10T22:21:48.934Z,6.48
2023-01-10T22:24:17.151Z,6.45
2023-01-10T22:26:45.397Z,6.43
2023-01-10T22:29:13.323Z,6.43
2023-01-10T22:31:41.503Z,6.40
2023-01-10T22:34:09.925Z,6.40
2023-01-10T22:36:38.048Z,6.39
2023-01-10T22:39:07.394Z,6.43
2023-01-10T22:41:36.889Z,6.47
2023-01-10T22:44:06.094Z,6.50
2023-01-10T22:46:34.403Z,6.51
2023-01-10T22:49:02.482Z,6.52
2023-01-10T22:51:35.463Z,6.52
2023-01-10T22:54:04.681Z,6.50
2023-01-10T22:56:33.392Z,6.49
2023-01-10T22:59:01.510Z,6.51
2023-01-10T23:01:30.042Z,6.52
2023-01-10T23:03:58.191Z,6.56
2023-01-10T23:06:26.739Z,6.60
2023-01-10T23:08:54.698Z,6.63
2023-01-10T23:11:23.136Z,6.66
2023-01-10T23:13:51.218Z,6.67
2023-01-10T23:16:29.819Z,6.66
2023-01-10T23:18:59.134Z,6.63
2023-01-10T23:21:29.341Z,6.61
2023-01-10T23:23:57.478Z,6.58
2023-01-10T23:26:25.629Z,6.56
2023-01-10T23:28:53.724Z,6.54
2023-01-10T23:31:24.595Z,6.53
2023-01-10T23:33:52.678Z,6.51
2023-01-10T23:36:20.982Z,6.48
2023-01-10T23:38:48.922Z,6.46
2023-01-10T23:41:17.212Z,6.44
2023-01-10T23:43:45.431Z,6.44
2023-01-10T23:46:13.583Z,6.46
2023-01-10T23:48:43.228Z,6.46
2023-01-10T23:51:11.747Z,6.45
2023-01-10T23:53:39.997Z,6.45
2023-01-10T23:56:13.662Z,6.45
2023-01-10T23:58:41.726Z,6.44
